sensor_id;sensor_type;location;lat;lon;timestamp;P1;durP1;ratioP1;P2;durP2;ratioP2
60205;SDS011;46072;51.554;6.846;2023-09-08T00:00:30;16.15;;;9.18;;
60205;SDS011;46072;51.554;6.846;2023-09-08T00:02:56;15.57;;;9.80;;
60205;SDS011;46072;51.554;6.846;2023-09-08T00:05:23;15.10;;;9.52;;
60205;SDS011;46072;51.554;6.846;2023-09-08T00:07:49;15.32;;;9.18;;
60205;SDS011;46072;51.554;6.846;2023-09-08T00:10:17;16.15;;;9.85;;
60205;SDS011;46072;51.554;6.846;2023-09-08T00:12:43;19.30;;;9.13;;
60205;SDS011;46072;51.554;6.846;2023-09-08T00:15:10;14.85;;;9.02;;
60205;SDS011;46072;51.554;6.846;2023-09-08T00:17:36;15.25;;;9.38;;
60205;SDS011;46072;51.554;6.846;2023-09-08T00:20:05;19.55;;;10.20;;
60205;SDS011;46072;51.554;6.846;2023-09-08T00:22:35;17.33;;;9.65;;
60205;SDS011;46072;51.554;6.846;2023-09-08T00:25:01;17.95;;;9.80;;
60205;SDS011;46072;51.554;6.846;2023-09-08T00:27:28;17.52;;;9.05;;
60205;SDS011;46072;51.554;6.846;2023-09-08T00:29:54;19.95;;;10.02;;
60205;SDS011;46072;51.554;6.846;2023-09-08T00:32:20;18.77;;;9.98;;
60205;SDS011;46072;51.554;6.846;2023-09-08T00:34:47;18.02;;;10.40;;
60205;SDS011;46072;51.554;6.846;2023-09-08T00:37:13;17.40;;;9.38;;
60205;SDS011;46072;51.554;6.846;2023-09-08T00:39:39;19.17;;;10.85;;
60205;SDS011;46072;51.554;6.846;2023-09-08T00:42:06;18.17;;;10.95;;
60205;SDS011;46072;51.554;6.846;2023-09-08T00:44:33;20.35;;;11.02;;
60205;SDS011;46072;51.554;6.846;2023-09-08T00:47:00;19.40;;;11.95;;
60205;SDS011;46072;51.554;6.846;2023-09-08T00:49:26;17.63;;;10.70;;
60205;SDS011;46072;51.554;6.846;2023-09-08T00:51:53;16.55;;;10.43;;
60205;SDS011;46072;51.554;6.846;2023-09-08T00:54:20;21.77;;;10.98;;
60205;SDS011;46072;51.554;6.846;2023-09-08T00:56:46;19.30;;;11.20;;
60205;SDS011;46072;51.554;6.846;2023-09-08T00:59:13;19.00;;;10.68;;
60205;SDS011;46072;51.554;6.846;2023-09-08T01:01:39;17.88;;;10.68;;
60205;SDS011;46072;51.554;6.846;2023-09-08T01:04:06;18.77;;;11.30;;
60205;SDS011;46072;51.554;6.846;2023-09-08T01:06:32;20.90;;;12.50;;
60205;SDS011;46072;51.554;6.846;2023-09-08T01:08:59;22.88;;;12.85;;
60205;SDS011;46072;51.554;6.846;2023-09-08T01:11:26;18.75;;;12.07;;
60205;SDS011;46072;51.554;6.846;2023-09-08T01:13:52;22.67;;;12.85;;
60205;SDS011;46072;51.554;6.846;2023-09-08T01:16:18;22.42;;;13.13;;
60205;SDS011;46072;51.554;6.846;2023-09-08T01:18:45;21.88;;;12.35;;
60205;SDS011;46072;51.554;6.846;2023-09-08T01:21:16;25.52;;;13.55;;
60205;SDS011;46072;51.554;6.846;2023-09-08T01:26:36;21.67;;;12.57;;
60205;SDS011;46072;51.554;6.846;2023-09-08T01:29:03;22.48;;;12.85;;
60205;SDS011;46072;51.554;6.846;2023-09-08T01:31:31;22.73;;;14.20;;
60205;SDS011;46072;51.554;6.846;2023-09-08T01:33:59;21.48;;;13.00;;
60205;SDS011;46072;51.554;6.846;2023-09-08T01:36:26;23.15;;;13.70;;
60205;SDS011;46072;51.554;6.846;2023-09-08T01:38:52;27.95;;;14.75;;
60205;SDS011;46072;51.554;6.846;2023-09-08T01:41:19;22.38;;;14.02;;
60205;SDS011;46072;51.554;6.846;2023-09-08T01:43:45;23.85;;;14.38;;
60205;SDS011;46072;51.554;6.846;2023-09-08T01:46:12;27.75;;;13.23;;
60205;SDS011;46072;51.554;6.846;2023-09-08T01:48:38;24.27;;;14.32;;
60205;SDS011;46072;51.554;6.846;2023-09-08T01:51:05;26.75;;;13.90;;
60205;SDS011;46072;51.554;6.846;2023-09-08T01:53:31;24.23;;;14.73;;
60205;SDS011;46072;51.554;6.846;2023-09-08T01:55:57;22.95;;;14.57;;
60205;SDS011;46072;51.554;6.846;2023-09-08T01:58:24;31.48;;;14.95;;
60205;SDS011;46072;51.554;6.846;2023-09-08T02:00:51;28.20;;;16.20;;
60205;SDS011;46072;51.554;6.846;2023-09-08T02:03:17;30.55;;;14.48;;
60205;SDS011;46072;51.554;6.846;2023-09-08T02:05:44;30.33;;;15.02;;
60205;SDS011;46072;51.554;6.846;2023-09-08T02:08:11;24.85;;;14.70;;
60205;SDS011;46072;51.554;6.846;2023-09-08T02:10:41;32.53;;;17.02;;
60205;SDS011;46072;51.554;6.846;2023-09-08T02:13:08;27.80;;;16.52;;
60205;SDS011;46072;51.554;6.846;2023-09-08T02:15:34;30.40;;;15.40;;
60205;SDS011;46072;51.554;6.846;2023-09-08T02:18:01;26.48;;;15.10;;
60205;SDS011;46072;51.554;6.846;2023-09-08T02:20:27;29.05;;;15.65;;
60205;SDS011;46072;51.554;6.846;2023-09-08T02:22:54;28.52;;;16.17;;
60205;SDS011;46072;51.554;6.846;2023-09-08T02:25:22;29.33;;;16.27;;
60205;SDS011;46072;51.554;6.846;2023-09-08T02:27:49;30.67;;;16.10;;
60205;SDS011;46072;51.554;6.846;2023-09-08T02:30:15;31.30;;;15.80;;
60205;SDS011;46072;51.554;6.846;2023-09-08T02:32:42;29.23;;;15.23;;
60205;SDS011;46072;51.554;6.846;2023-09-08T02:35:09;29.20;;;15.50;;
60205;SDS011;46072;51.554;6.846;2023-09-08T02:37:36;25.48;;;15.30;;
60205;SDS011;46072;51.554;6.846;2023-09-08T02:40:02;28.27;;;15.98;;
60205;SDS011;46072;51.554;6.846;2023-09-08T02:42:29;26.90;;;14.60;;
60205;SDS011;46072;51.554;6.846;2023-09-08T02:44:56;27.92;;;14.75;;
60205;SDS011;46072;51.554;6.846;2023-09-08T02:47:22;28.25;;;14.77;;
60205;SDS011;46072;51.554;6.846;2023-09-08T02:49:48;25.95;;;14.43;;
60205;SDS011;46072;51.554;6.846;2023-09-08T02:52:15;27.52;;;15.38;;
60205;SDS011;46072;51.554;6.846;2023-09-08T02:54:41;27.83;;;15.13;;
60205;SDS011;46072;51.554;6.846;2023-09-08T02:57:07;26.27;;;14.75;;
60205;SDS011;46072;51.554;6.846;2023-09-08T02:59:34;28.88;;;15.50;;
60205;SDS011;46072;51.554;6.846;2023-09-08T03:02:00;30.55;;;15.52;;
60205;SDS011;46072;51.554;6.846;2023-09-08T03:04:27;25.15;;;15.52;;
60205;SDS011;46072;51.554;6.846;2023-09-08T03:06:53;28.13;;;16.13;;
60205;SDS011;46072;51.554;6.846;2023-09-08T03:09:19;28.98;;;16.25;;
60205;SDS011;46072;51.554;6.846;2023-09-08T03:11:45;29.92;;;15.80;;
60205;SDS011;46072;51.554;6.846;2023-09-08T03:14:12;29.38;;;16.85;;
60205;SDS011;46072;51.554;6.846;2023-09-08T03:16:38;28.25;;;16.90;;
60205;SDS011;46072;51.554;6.846;2023-09-08T03:19:05;31.60;;;16.58;;
60205;SDS011;46072;51.554;6.846;2023-09-08T03:21:31;30.13;;;16.65;;
60205;SDS011;46072;51.554;6.846;2023-09-08T03:23:58;30.02;;;16.38;;
60205;SDS011;46072;51.554;6.846;2023-09-08T03:26:24;28.95;;;16.88;;
60205;SDS011;46072;51.554;6.846;2023-09-08T03:28:50;30.15;;;17.67;;
60205;SDS011;46072;51.554;6.846;2023-09-08T03:31:17;32.92;;;18.05;;
60205;SDS011;46072;51.554;6.846;2023-09-08T03:33:44;36.50;;;19.33;;
60205;SDS011;46072;51.554;6.846;2023-09-08T03:36:10;30.88;;;17.42;;
60205;SDS011;46072;51.554;6.846;2023-09-08T03:38:37;30.70;;;18.23;;
60205;SDS011;46072;51.554;6.846;2023-09-08T03:41:04;33.13;;;18.73;;
60205;SDS011;46072;51.554;6.846;2023-09-08T03:43:30;32.70;;;18.23;;
60205;SDS011;46072;51.554;6.846;2023-09-08T03:45:56;29.60;;;16.50;;
60205;SDS011;46072;51.554;6.846;2023-09-08T03:48:23;29.75;;;16.75;;
60205;SDS011;46072;51.554;6.846;2023-09-08T03:50:49;36.70;;;18.65;;
60205;SDS011;46072;51.554;6.846;2023-09-08T03:53:15;31.35;;;17.55;;
60205;SDS011;46072;51.554;6.846;2023-09-08T03:55:42;34.72;;;18.08;;
60205;SDS011;46072;51.554;6.846;2023-09-08T03:58:08;31.48;;;18.45;;
60205;SDS011;46072;51.554;6.846;2023-09-08T04:00:35;34.75;;;18.48;;
60205;SDS011;46072;51.554;6.846;2023-09-08T04:03:01;31.95;;;19.00;;
60205;SDS011;46072;51.554;6.846;2023-09-08T04:05:28;31.20;;;18.48;;
60205;SDS011;46072;51.554;6.846;2023-09-08T04:07:55;35.30;;;20.17;;
60205;SDS011;46072;51.554;6.846;2023-09-08T04:10:21;34.90;;;18.40;;
60205;SDS011;46072;51.554;6.846;2023-09-08T04:12:49;35.28;;;17.80;;
60205;SDS011;46072;51.554;6.846;2023-09-08T04:15:15;31.95;;;18.20;;
60205;SDS011;46072;51.554;6.846;2023-09-08T04:17:42;33.85;;;17.85;;
60205;SDS011;46072;51.554;6.846;2023-09-08T04:20:08;33.25;;;18.80;;
60205;SDS011;46072;51.554;6.846;2023-09-08T04:22:35;31.08;;;17.02;;
60205;SDS011;46072;51.554;6.846;2023-09-08T04:25:01;28.58;;;16.83;;
60205;SDS011;46072;51.554;6.846;2023-09-08T04:27:28;37.20;;;19.05;;
60205;SDS011;46072;51.554;6.846;2023-09-08T04:29:54;32.95;;;17.05;;
60205;SDS011;46072;51.554;6.846;2023-09-08T04:32:20;31.27;;;17.63;;
60205;SDS011;46072;51.554;6.846;2023-09-08T04:34:47;28.50;;;16.77;;
60205;SDS011;46072;51.554;6.846;2023-09-08T04:37:15;30.92;;;18.10;;
60205;SDS011;46072;51.554;6.846;2023-09-08T04:39:41;32.25;;;18.88;;
60205;SDS011;46072;51.554;6.846;2023-09-08T04:42:08;35.38;;;18.88;;
60205;SDS011;46072;51.554;6.846;2023-09-08T04:44:34;32.03;;;19.08;;
60205;SDS011;46072;51.554;6.846;2023-09-08T04:47:00;38.42;;;19.75;;
60205;SDS011;46072;51.554;6.846;2023-09-08T04:49:27;33.33;;;17.80;;
60205;SDS011;46072;51.554;6.846;2023-09-08T04:51:55;33.13;;;19.05;;
60205;SDS011;46072;51.554;6.846;2023-09-08T04:54:21;37.08;;;20.33;;
60205;SDS011;46072;51.554;6.846;2023-09-08T04:56:48;32.58;;;18.65;;
60205;SDS011;46072;51.554;6.846;2023-09-08T04:59:15;37.35;;;20.63;;
60205;SDS011;46072;51.554;6.846;2023-09-08T05:01:41;40.38;;;20.80;;
60205;SDS011;46072;51.554;6.846;2023-09-08T05:04:09;40.17;;;19.30;;
60205;SDS011;46072;51.554;6.846;2023-09-08T05:06:37;39.95;;;20.10;;
60205;SDS011;46072;51.554;6.846;2023-09-08T05:09:03;35.72;;;18.13;;
60205;SDS011;46072;51.554;6.846;2023-09-08T05:11:30;38.20;;;19.77;;
60205;SDS011;46072;51.554;6.846;2023-09-08T05:13:56;40.63;;;20.05;;
60205;SDS011;46072;51.554;6.846;2023-09-08T05:16:24;40.10;;;21.60;;
60205;SDS011;46072;51.554;6.846;2023-09-08T05:19:03;38.40;;;20.20;;
60205;SDS011;46072;51.554;6.846;2023-09-08T05:21:30;38.85;;;21.05;;
60205;SDS011;46072;51.554;6.846;2023-09-08T05:23:57;41.00;;;20.05;;
60205;SDS011;46072;51.554;6.846;2023-09-08T05:26:23;35.78;;;20.00;;
60205;SDS011;46072;51.554;6.846;2023-09-08T05:28:50;36.67;;;20.05;;
60205;SDS011;46072;51.554;6.846;2023-09-08T05:31:16;36.03;;;19.55;;
60205;SDS011;46072;51.554;6.846;2023-09-08T05:33:42;35.33;;;20.00;;
60205;SDS011;46072;51.554;6.846;2023-09-08T05:36:09;34.47;;;19.30;;
60205;SDS011;46072;51.554;6.846;2023-09-08T05:38:37;32.60;;;19.05;;
60205;SDS011;46072;51.554;6.846;2023-09-08T05:41:03;37.67;;;20.55;;
60205;SDS011;46072;51.554;6.846;2023-09-08T05:43:30;37.85;;;19.33;;
60205;SDS011;46072;51.554;6.846;2023-09-08T05:45:56;37.35;;;20.05;;
60205;SDS011;46072;51.554;6.846;2023-09-08T05:48:23;45.03;;;23.50;;
60205;SDS011;46072;51.554;6.846;2023-09-08T05:50:49;42.70;;;23.92;;
60205;SDS011;46072;51.554;6.846;2023-09-08T05:53:16;40.90;;;22.60;;
60205;SDS011;46072;51.554;6.846;2023-09-08T05:55:42;41.97;;;22.13;;
60205;SDS011;46072;51.554;6.846;2023-09-08T05:58:08;37.20;;;21.23;;
60205;SDS011;46072;51.554;6.846;2023-09-08T06:00:35;52.47;;;26.33;;
60205;SDS011;46072;51.554;6.846;2023-09-08T06:03:01;50.17;;;27.85;;
60205;SDS011;46072;51.554;6.846;2023-09-08T06:05:28;44.22;;;26.23;;
60205;SDS011;46072;51.554;6.846;2023-09-08T06:07:54;29.38;;;18.65;;
60205;SDS011;46072;51.554;6.846;2023-09-08T06:10:32;22.17;;;14.32;;
60205;SDS011;46072;51.554;6.846;2023-09-08T06:12:58;20.33;;;11.98;;
60205;SDS011;46072;51.554;6.846;2023-09-08T06:15:25;17.13;;;11.30;;
60205;SDS011;46072;51.554;6.846;2023-09-08T06:17:51;20.45;;;11.38;;
60205;SDS011;46072;51.554;6.846;2023-09-08T06:20:18;17.42;;;10.48;;
60205;SDS011;46072;51.554;6.846;2023-09-08T06:22:44;17.40;;;10.38;;
60205;SDS011;46072;51.554;6.846;2023-09-08T06:25:11;19.60;;;10.27;;
60205;SDS011;46072;51.554;6.846;2023-09-08T06:27:37;17.55;;;9.85;;
60205;SDS011;46072;51.554;6.846;2023-09-08T06:30:03;15.77;;;8.98;;
60205;SDS011;46072;51.554;6.846;2023-09-08T06:32:30;16.70;;;10.27;;
60205;SDS011;46072;51.554;6.846;2023-09-08T06:34:57;16.27;;;9.07;;
60205;SDS011;46072;51.554;6.846;2023-09-08T06:37:23;16.20;;;9.05;;
60205;SDS011;46072;51.554;6.846;2023-09-08T06:39:49;14.82;;;8.85;;
60205;SDS011;46072;51.554;6.846;2023-09-08T06:42:16;15.60;;;9.50;;
60205;SDS011;46072;51.554;6.846;2023-09-08T06:44:42;16.55;;;9.15;;
60205;SDS011;46072;51.554;6.846;2023-09-08T06:47:08;15.13;;;9.45;;
60205;SDS011;46072;51.554;6.846;2023-09-08T06:49:35;18.52;;;8.98;;
60205;SDS011;46072;51.554;6.846;2023-09-08T06:52:01;19.67;;;9.23;;
60205;SDS011;46072;51.554;6.846;2023-09-08T06:54:28;17.42;;;9.23;;
60205;SDS011;46072;51.554;6.846;2023-09-08T06:56:54;16.02;;;9.20;;
60205;SDS011;46072;51.554;6.846;2023-09-08T06:59:20;14.63;;;9.27;;
60205;SDS011;46072;51.554;6.846;2023-09-08T07:01:47;14.38;;;8.68;;
60205;SDS011;46072;51.554;6.846;2023-09-08T07:04:13;17.23;;;9.02;;
60205;SDS011;46072;51.554;6.846;2023-09-08T07:06:40;15.00;;;8.63;;
60205;SDS011;46072;51.554;6.846;2023-09-08T07:09:09;14.93;;;8.45;;
60205;SDS011;46072;51.554;6.846;2023-09-08T07:11:36;14.13;;;8.23;;
60205;SDS011;46072;51.554;6.846;2023-09-08T07:14:02;16.05;;;9.27;;
60205;SDS011;46072;51.554;6.846;2023-09-08T07:16:28;19.52;;;8.93;;
60205;SDS011;46072;51.554;6.846;2023-09-08T07:18:55;14.95;;;8.00;;
60205;SDS011;46072;51.554;6.846;2023-09-08T07:21:21;14.82;;;8.57;;
60205;SDS011;46072;51.554;6.846;2023-09-08T07:23:48;16.35;;;9.07;;
60205;SDS011;46072;51.554;6.846;2023-09-08T07:26:14;11.65;;;7.90;;
60205;SDS011;46072;51.554;6.846;2023-09-08T07:28:41;14.43;;;7.93;;
60205;SDS011;46072;51.554;6.846;2023-09-08T07:31:07;13.35;;;8.30;;
60205;SDS011;46072;51.554;6.846;2023-09-08T07:33:35;15.45;;;8.10;;
60205;SDS011;46072;51.554;6.846;2023-09-08T07:36:06;15.13;;;8.00;;
60205;SDS011;46072;51.554;6.846;2023-09-08T07:38:33;12.70;;;7.65;;
60205;SDS011;46072;51.554;6.846;2023-09-08T07:41:01;13.15;;;7.93;;
60205;SDS011;46072;51.554;6.846;2023-09-08T07:43:28;13.50;;;8.05;;
60205;SDS011;46072;51.554;6.846;2023-09-08T07:45:54;16.48;;;7.80;;
60205;SDS011;46072;51.554;6.846;2023-09-08T07:48:21;17.52;;;8.15;;
60205;SDS011;46072;51.554;6.846;2023-09-08T07:50:47;14.90;;;7.88;;
60205;SDS011;46072;51.554;6.846;2023-09-08T07:53:14;14.75;;;8.25;;
60205;SDS011;46072;51.554;6.846;2023-09-08T07:55:40;12.48;;;7.88;;
60205;SDS011;46072;51.554;6.846;2023-09-08T07:58:07;14.13;;;7.20;;
60205;SDS011;46072;51.554;6.846;2023-09-08T08:00:34;16.10;;;7.55;;
60205;SDS011;46072;51.554;6.846;2023-09-08T08:03:00;15.85;;;7.85;;
60205;SDS011;46072;51.554;6.846;2023-09-08T08:05:27;17.73;;;7.93;;
60205;SDS011;46072;51.554;6.846;2023-09-08T08:07:53;12.93;;;6.95;;
60205;SDS011;46072;51.554;6.846;2023-09-08T08:10:20;14.75;;;7.65;;
60205;SDS011;46072;51.554;6.846;2023-09-08T08:12:46;13.38;;;7.20;;
60205;SDS011;46072;51.554;6.846;2023-09-08T08:15:12;13.90;;;7.45;;
60205;SDS011;46072;51.554;6.846;2023-09-08T08:17:39;11.13;;;6.32;;
60205;SDS011;46072;51.554;6.846;2023-09-08T08:20:07;14.48;;;7.00;;
60205;SDS011;46072;51.554;6.846;2023-09-08T08:22:36;16.88;;;7.18;;
60205;SDS011;46072;51.554;6.846;2023-09-08T08:25:02;13.30;;;6.75;;
60205;SDS011;46072;51.554;6.846;2023-09-08T08:27:32;13.50;;;6.28;;
60205;SDS011;46072;51.554;6.846;2023-09-08T08:29:59;15.70;;;6.32;;
60205;SDS011;46072;51.554;6.846;2023-09-08T08:32:27;14.07;;;7.20;;
60205;SDS011;46072;51.554;6.846;2023-09-08T08:34:53;14.45;;;7.18;;
60205;SDS011;46072;51.554;6.846;2023-09-08T08:37:20;13.90;;;6.70;;
60205;SDS011;46072;51.554;6.846;2023-09-08T08:39:46;11.23;;;7.30;;
60205;SDS011;46072;51.554;6.846;2023-09-08T08:42:13;14.90;;;7.38;;
60205;SDS011;46072;51.554;6.846;2023-09-08T08:44:40;14.95;;;7.30;;
60205;SDS011;46072;51.554;6.846;2023-09-08T08:47:07;14.02;;;6.80;;
60205;SDS011;46072;51.554;6.846;2023-09-08T08:49:33;21.85;;;7.30;;
60205;SDS011;46072;51.554;6.846;2023-09-08T08:52:00;12.88;;;6.97;;
60205;SDS011;46072;51.554;6.846;2023-09-08T08:54:29;17.33;;;7.20;;
60205;SDS011;46072;51.554;6.846;2023-09-08T08:56:56;11.80;;;6.55;;
60205;SDS011;46072;51.554;6.846;2023-09-08T08:59:23;16.85;;;6.75;;
60205;SDS011;46072;51.554;6.846;2023-09-08T09:01:49;14.73;;;7.15;;
60205;SDS011;46072;51.554;6.846;2023-09-08T09:04:16;17.90;;;7.05;;
60205;SDS011;46072;51.554;6.846;2023-09-08T09:06:42;18.42;;;7.10;;
60205;SDS011;46072;51.554;6.846;2023-09-08T09:09:09;13.75;;;6.97;;
60205;SDS011;46072;51.554;6.846;2023-09-08T09:11:37;14.75;;;6.72;;
60205;SDS011;46072;51.554;6.846;2023-09-08T09:14:03;12.65;;;6.35;;
60205;SDS011;46072;51.554;6.846;2023-09-08T09:16:30;10.30;;;6.00;;
60205;SDS011;46072;51.554;6.846;2023-09-08T09:18:57;11.45;;;6.18;;
60205;SDS011;46072;51.554;6.846;2023-09-08T09:21:25;14.32;;;6.18;;
60205;SDS011;46072;51.554;6.846;2023-09-08T09:24:06;9.60;;;5.38;;
60205;SDS011;46072;51.554;6.846;2023-09-08T09:26:33;9.50;;;5.45;;
60205;SDS011;46072;51.554;6.846;2023-09-08T09:28:59;10.70;;;5.88;;
60205;SDS011;46072;51.554;6.846;2023-09-08T09:31:25;8.43;;;5.57;;
60205;SDS011;46072;51.554;6.846;2023-09-08T09:34:01;9.60;;;5.95;;
60205;SDS011;46072;51.554;6.846;2023-09-08T09:36:30;9.40;;;5.38;;
60205;SDS011;46072;51.554;6.846;2023-09-08T09:38:59;12.00;;;5.60;;
60205;SDS011;46072;51.554;6.846;2023-09-08T09:43:53;9.15;;;5.25;;
60205;SDS011;46072;51.554;6.846;2023-09-08T09:46:19;10.32;;;5.50;;
60205;SDS011;46072;51.554;6.846;2023-09-08T09:48:51;13.07;;;5.75;;
60205;SDS011;46072;51.554;6.846;2023-09-08T09:51:20;9.75;;;5.53;;
60205;SDS011;46072;51.554;6.846;2023-09-08T09:53:46;12.93;;;5.50;;
60205;SDS011;46072;51.554;6.846;2023-09-08T09:56:16;9.48;;;5.28;;
60205;SDS011;46072;51.554;6.846;2023-09-08T09:58:43;9.35;;;5.35;;
60205;SDS011;46072;51.554;6.846;2023-09-08T10:01:10;11.32;;;6.10;;
60205;SDS011;46072;51.554;6.846;2023-09-08T10:03:40;9.13;;;5.90;;
60205;SDS011;46072;51.554;6.846;2023-09-08T10:06:07;12.88;;;6.22;;
60205;SDS011;46072;51.554;6.846;2023-09-08T10:08:33;8.80;;;5.72;;
60205;SDS011;46072;51.554;6.846;2023-09-08T10:11:05;10.23;;;5.80;;
60205;SDS011;46072;51.554;6.846;2023-09-08T10:13:31;8.65;;;5.68;;
60205;SDS011;46072;51.554;6.846;2023-09-08T10:15:59;9.57;;;5.57;;
60205;SDS011;46072;51.554;6.846;2023-09-08T10:18:28;9.90;;;5.72;;
60205;SDS011;46072;51.554;6.846;2023-09-08T10:20:56;9.48;;;5.60;;
60205;SDS011;46072;51.554;6.846;2023-09-08T10:26:24;12.43;;;5.63;;
60205;SDS011;46072;51.554;6.846;2023-09-08T10:28:53;10.00;;;5.97;;
60205;SDS011;46072;51.554;6.846;2023-09-08T10:31:25;9.35;;;5.82;;
60205;SDS011;46072;51.554;6.846;2023-09-08T10:33:55;11.20;;;5.72;;
60205;SDS011;46072;51.554;6.846;2023-09-08T10:36:23;10.65;;;5.60;;
60205;SDS011;46072;51.554;6.846;2023-09-08T10:38:50;9.02;;;5.47;;
60205;SDS011;46072;51.554;6.846;2023-09-08T10:43:57;11.43;;;5.50;;
60205;SDS011;46072;51.554;6.846;2023-09-08T10:46:26;9.48;;;6.00;;
60205;SDS011;46072;51.554;6.846;2023-09-08T10:48:53;10.40;;;5.80;;
60205;SDS011;46072;51.554;6.846;2023-09-08T10:51:21;10.52;;;6.10;;
60205;SDS011;46072;51.554;6.846;2023-09-08T10:53:48;13.93;;;5.90;;
60205;SDS011;46072;51.554;6.846;2023-09-08T10:56:18;13.20;;;6.13;;
60205;SDS011;46072;51.554;6.846;2023-09-08T10:58:51;10.32;;;5.78;;
60205;SDS011;46072;51.554;6.846;2023-09-08T11:01:19;11.07;;;6.18;;
60205;SDS011;46072;51.554;6.846;2023-09-08T11:03:49;13.00;;;5.90;;
60205;SDS011;46072;51.554;6.846;2023-09-08T11:06:17;8.57;;;5.40;;
60205;SDS011;46072;51.554;6.846;2023-09-08T11:08:44;11.40;;;5.72;;
60205;SDS011;46072;51.554;6.846;2023-09-08T11:11:12;9.52;;;5.80;;
60205;SDS011;46072;51.554;6.846;2023-09-08T11:13:39;9.00;;;5.78;;
60205;SDS011;46072;51.554;6.846;2023-09-08T11:16:11;10.65;;;7.00;;
60205;SDS011;46072;51.554;6.846;2023-09-08T11:18:39;9.90;;;5.93;;
60205;SDS011;46072;51.554;6.846;2023-09-08T11:21:07;10.20;;;5.55;;
60205;SDS011;46072;51.554;6.846;2023-09-08T11:23:34;10.35;;;6.20;;
60205;SDS011;46072;51.554;6.846;2023-09-08T11:26:01;10.55;;;6.20;;
60205;SDS011;46072;51.554;6.846;2023-09-08T11:28:28;8.70;;;6.20;;
60205;SDS011;46072;51.554;6.846;2023-09-08T11:30:55;12.65;;;5.88;;
60205;SDS011;46072;51.554;6.846;2023-09-08T11:33:22;13.75;;;6.15;;
60205;SDS011;46072;51.554;6.846;2023-09-08T11:35:52;14.05;;;5.90;;
60205;SDS011;46072;51.554;6.846;2023-09-08T11:38:26;9.65;;;6.38;;
60205;SDS011;46072;51.554;6.846;2023-09-08T11:40:53;12.88;;;5.80;;
60205;SDS011;46072;51.554;6.846;2023-09-08T11:43:20;11.25;;;6.10;;
60205;SDS011;46072;51.554;6.846;2023-09-08T11:45:46;9.88;;;5.90;;
60205;SDS011;46072;51.554;6.846;2023-09-08T11:48:14;9.52;;;5.78;;
60205;SDS011;46072;51.554;6.846;2023-09-08T11:50:43;9.18;;;5.93;;
60205;SDS011;46072;51.554;6.846;2023-09-08T11:53:11;13.30;;;6.47;;
60205;SDS011;46072;51.554;6.846;2023-09-08T11:55:37;12.93;;;5.80;;
60205;SDS011;46072;51.554;6.846;2023-09-08T11:58:03;11.50;;;6.13;;
60205;SDS011;46072;51.554;6.846;2023-09-08T12:00:30;10.43;;;6.15;;
60205;SDS011;46072;51.554;6.846;2023-09-08T12:03:14;9.18;;;6.25;;
60205;SDS011;46072;51.554;6.846;2023-09-08T12:05:42;9.23;;;5.78;;
60205;SDS011;46072;51.554;6.846;2023-09-08T12:08:10;10.85;;;6.32;;
60205;SDS011;46072;51.554;6.846;2023-09-08T12:10:40;10.10;;;6.35;;
60205;SDS011;46072;51.554;6.846;2023-09-08T12:13:07;8.98;;;5.90;;
60205;SDS011;46072;51.554;6.846;2023-09-08T12:18:01;9.13;;;5.72;;
60205;SDS011;46072;51.554;6.846;2023-09-08T12:20:27;11.30;;;6.55;;
60205;SDS011;46072;51.554;6.846;2023-09-08T12:22:56;10.65;;;6.18;;
60205;SDS011;46072;51.554;6.846;2023-09-08T12:25:23;10.57;;;6.50;;
60205;SDS011;46072;51.554;6.846;2023-09-08T12:27:50;10.98;;;6.35;;
60205;SDS011;46072;51.554;6.846;2023-09-08T12:30:17;9.95;;;6.35;;
60205;SDS011;46072;51.554;6.846;2023-09-08T12:32:45;10.60;;;5.90;;
60205;SDS011;46072;51.554;6.846;2023-09-08T12:35:12;11.35;;;6.32;;
60205;SDS011;46072;51.554;6.846;2023-09-08T12:37:38;9.85;;;6.13;;
60205;SDS011;46072;51.554;6.846;2023-09-08T12:40:05;11.20;;;6.20;;
60205;SDS011;46072;51.554;6.846;2023-09-08T12:42:31;11.35;;;6.13;;
60205;SDS011;46072;51.554;6.846;2023-09-08T12:45:00;12.98;;;6.00;;
60205;SDS011;46072;51.554;6.846;2023-09-08T12:47:27;10.60;;;5.88;;
60205;SDS011;46072;51.554;6.846;2023-09-08T12:49:53;9.45;;;6.10;;
60205;SDS011;46072;51.554;6.846;2023-09-08T12:52:22;10.60;;;6.38;;
60205;SDS011;46072;51.554;6.846;2023-09-08T12:54:48;11.38;;;6.45;;
60205;SDS011;46072;51.554;6.846;2023-09-08T12:57:14;9.25;;;6.65;;
60205;SDS011;46072;51.554;6.846;2023-09-08T12:59:41;10.07;;;6.07;;
60205;SDS011;46072;51.554;6.846;2023-09-08T13:02:07;8.95;;;5.90;;
60205;SDS011;46072;51.554;6.846;2023-09-08T13:04:33;8.32;;;6.10;;
60205;SDS011;46072;51.554;6.846;2023-09-08T13:07:00;9.77;;;6.30;;
60205;SDS011;46072;51.554;6.846;2023-09-08T13:09:27;9.50;;;6.28;;
60205;SDS011;46072;51.554;6.846;2023-09-08T13:11:54;11.45;;;6.20;;
60205;SDS011;46072;51.554;6.846;2023-09-08T13:14:20;9.27;;;6.43;;
60205;SDS011;46072;51.554;6.846;2023-09-08T13:16:46;10.48;;;6.63;;
60205;SDS011;46072;51.554;6.846;2023-09-08T13:19:13;10.32;;;6.65;;
60205;SDS011;46072;51.554;6.846;2023-09-08T13:21:39;11.15;;;6.40;;
60205;SDS011;46072;51.554;6.846;2023-09-08T13:24:06;14.63;;;6.47;;
60205;SDS011;46072;51.554;6.846;2023-09-08T13:26:33;9.00;;;6.07;;
60205;SDS011;46072;51.554;6.846;2023-09-08T13:28:59;10.75;;;6.80;;
60205;SDS011;46072;51.554;6.846;2023-09-08T13:31:26;10.93;;;6.43;;
60205;SDS011;46072;51.554;6.846;2023-09-08T13:33:52;11.52;;;6.45;;
60205;SDS011;46072;51.554;6.846;2023-09-08T13:36:18;10.07;;;6.82;;
60205;SDS011;46072;51.554;6.846;2023-09-08T13:38:45;11.43;;;6.93;;
60205;SDS011;46072;51.554;6.846;2023-09-08T13:41:11;12.20;;;7.00;;
60205;SDS011;46072;51.554;6.846;2023-09-08T13:43:37;14.30;;;6.65;;
60205;SDS011;46072;51.554;6.846;2023-09-08T13:46:05;11.93;;;6.95;;
60205;SDS011;46072;51.554;6.846;2023-09-08T13:48:31;11.93;;;6.53;;
60205;SDS011;46072;51.554;6.846;2023-09-08T13:51:02;15.95;;;7.15;;
60205;SDS011;46072;51.554;6.846;2023-09-08T13:53:32;9.38;;;6.25;;
60205;SDS011;46072;51.554;6.846;2023-09-08T13:56:08;9.52;;;6.28;;
60205;SDS011;46072;51.554;6.846;2023-09-08T13:58:35;12.48;;;6.50;;
60205;SDS011;46072;51.554;6.846;2023-09-08T14:01:14;11.38;;;6.70;;
60205;SDS011;46072;51.554;6.846;2023-09-08T14:03:43;12.07;;;7.57;;
60205;SDS011;46072;51.554;6.846;2023-09-08T14:06:29;12.80;;;7.07;;
60205;SDS011;46072;51.554;6.846;2023-09-08T14:09:04;11.55;;;6.70;;
60205;SDS011;46072;51.554;6.846;2023-09-08T14:11:33;12.73;;;7.10;;
60205;SDS011;46072;51.554;6.846;2023-09-08T14:14:20;13.85;;;7.47;;
60205;SDS011;46072;51.554;6.846;2023-09-08T14:16:47;11.10;;;6.78;;
60205;SDS011;46072;51.554;6.846;2023-09-08T14:19:14;11.00;;;7.00;;
60205;SDS011;46072;51.554;6.846;2023-09-08T14:21:40;10.43;;;6.65;;
60205;SDS011;46072;51.554;6.846;2023-09-08T14:24:06;13.48;;;7.07;;
60205;SDS011;46072;51.554;6.846;2023-09-08T14:26:33;14.32;;;7.13;;
60205;SDS011;46072;51.554;6.846;2023-09-08T14:29:00;11.88;;;7.20;;
60205;SDS011;46072;51.554;6.846;2023-09-08T14:31:27;12.75;;;7.53;;
60205;SDS011;46072;51.554;6.846;2023-09-08T14:33:53;11.80;;;7.43;;
60205;SDS011;46072;51.554;6.846;2023-09-08T14:36:20;16.35;;;8.00;;
60205;SDS011;46072;51.554;6.846;2023-09-08T14:38:46;18.10;;;8.07;;
60205;SDS011;46072;51.554;6.846;2023-09-08T14:41:13;11.48;;;7.22;;
60205;SDS011;46072;51.554;6.846;2023-09-08T14:43:40;12.55;;;7.88;;